createdAt,value
2017-12-31T02:04:13.786Z,45.40
2017-12-31T02:06:44.763Z,64.47
2017-12-31T02:09:15.403Z,35.63
2017-12-31T02:11:46.794Z,63.17
2017-12-31T02:14:15.693Z,47.37
2017-12-31T02:16:45.463Z,61.33
2017-12-31T02:19:17.907Z,79.50
2017-12-31T02:21:46.221Z,59.07
2017-12-31T02:24:19.071Z,59.93
2017-12-31T02:26:49.304Z,63.83
2017-12-31T02:29:19.616Z,62.30
2017-12-31T02:31:54.114Z,61.80
2017-12-31T02:34:30.866Z,62.80
2017-12-31T02:37:00.886Z,70.13
2017-12-31T02:39:31.587Z,63.17
2017-12-31T02:42:01.504Z,61.77
2017-12-31T02:44:32.165Z,69.30
2017-12-31T02:47:14.154Z,60.93
2017-12-31T02:49:45.168Z,73.07
2017-12-31T02:52:14.616Z,59.87
2017-12-31T02:54:45.393Z,64.97
2017-12-31T02:57:15.108Z,92.43
2017-12-31T02:59:47.944Z,83.30
2017-12-31T03:02:16.957Z,78.27
2017-12-31T03:04:46.395Z,84.57
2017-12-31T03:07:15.279Z,83.17
2017-12-31T03:09:48.482Z,84.47
2017-12-31T03:12:31.214Z,75.47
2017-12-31T03:15:04.233Z,82.73
2017-12-31T03:17:32.337Z,83.50
2017-12-31T03:20:02.275Z,75.13
2017-12-31T03:25:26.290Z,92.90
2017-12-31T03:27:57.867Z,93.50
2017-12-31T03:30:29.261Z,84.77
2017-12-31T03:33:00.576Z,114.43
2017-12-31T03:35:31.855Z,77.07
2017-12-31T03:38:05.624Z,105.03
2017-12-31T03:40:37.505Z,91.60
2017-12-31T03:43:05.503Z,75.53
2017-12-31T03:45:38.899Z,76.30
2017-12-31T03:48:09.228Z,87.43
2017-12-31T03:50:43.630Z,62.97
2017-12-31T03:53:14.338Z,62.53
2017-12-31T03:55:48.250Z,86.63
2017-12-31T03:58:18.826Z,69.77
2017-12-31T04:00:52.934Z,56.97
2017-12-31T04:03:26.877Z,64.27
2017-12-31T04:05:57.426Z,69.47
2017-12-31T04:08:30.491Z,66.27
2017-12-31T04:11:00.960Z,69.43
2017-12-31T04:13:31.960Z,50.43
2017-12-31T04:16:02.697Z,45.63
2017-12-31T04:21:27.725Z,38.57
2017-12-31T04:24:04.580Z,49.97
2017-12-31T04:26:39.307Z,52.43
2017-12-31T04:29:10.575Z,54.20
2017-12-31T04:31:42.930Z,49.73
2017-12-31T04:34:19.315Z,44.63
2017-12-31T04:36:51.064Z,64.20
2017-12-31T04:39:23.751Z,75.00
2017-12-31T09:33:57.112Z,17.17
2017-12-31T09:39:04.254Z,10.67
2017-12-31T09:41:35.471Z,15.33
2017-12-31T09:44:10.480Z,17.20
2017-12-31T09:46:42.720Z,21.57
2017-12-31T09:51:52.061Z,13.40
2017-12-31T09:57:23.230Z,26.93
2017-12-31T10:00:06.239Z,13.63
2017-12-31T10:02:40.296Z,10.67
2017-12-31T10:05:13.495Z,9.17
2017-12-31T10:07:45.423Z,16.27
2017-12-31T10:20:30.678Z,15.43
2017-12-31T10:23:06.961Z,13.03
2017-12-31T10:25:42.878Z,15.77
2017-12-31T10:28:17.149Z,19.60
2017-12-31T10:30:50.836Z,15.87
2017-12-31T10:33:21.733Z,7.47
2017-12-31T10:35:56.718Z,13.40
2017-12-31T10:38:28.688Z,15.67
2017-12-31T10:41:01.296Z,22.87
2017-12-31T10:43:29.775Z,13.17
2017-12-31T10:46:22.793Z,20.43
2017-12-31T10:48:53.616Z,14.67
2017-12-31T10:51:24.399Z,19.60
2017-12-31T10:53:52.262Z,8.20
2017-12-31T10:56:21.287Z,15.07
2017-12-31T10:58:50.936Z,19.03
2017-12-31T11:01:18.668Z,21.67
2017-12-31T11:03:52.782Z,15.90
2017-12-31T11:06:38.926Z,13.10
2017-12-31T13:04:52.471Z,15.63
2017-12-31T13:07:37.864Z,15.97
2017-12-31T13:10:09.424Z,26.97
2017-12-31T13:12:38.189Z,24.13
2017-12-31T13:18:10.363Z,16.43
2017-12-31T13:26:05.653Z,10.97
2017-12-31T13:28:36.213Z,19.77
2017-12-31T13:31:04.065Z,8.67
2017-12-31T13:33:40.715Z,15.63
2017-12-31T13:36:12.725Z,18.33
2017-12-31T13:41:17.428Z,15.03
2017-12-31T13:43:46.932Z,12.50
2017-12-31T13:46:14.868Z,14.37
2017-12-31T13:48:43.837Z,14.63
2017-12-31T13:51:11.532Z,11.87
2017-12-31T13:53:39.808Z,11.13
2017-12-31T13:56:07.684Z,17.40
2017-12-31T13:58:37.683Z,17.00
2017-12-31T14:01:09.335Z,23.77
2017-12-31T14:03:37.893Z,14.37
2017-12-31T14:06:05.684Z,9.07
2017-12-31T14:08:35.351Z,7.80
2017-12-31T14:11:04.320Z,11.50
2017-12-31T14:13:32.136Z,11.13
2017-12-31T14:15:59.902Z,15.43
2017-12-31T14:18:29.146Z,15.50
2017-12-31T14:21:00.032Z,12.50
2017-12-31T14:23:29.214Z,10.60
2017-12-31T14:26:00.897Z,18.60
2017-12-31T14:28:28.643Z,12.33
2017-12-31T14:30:56.816Z,13.67
2017-12-31T14:33:25.254Z,9.60
2017-12-31T14:35:53.161Z,19.43
2017-12-31T14:38:23.113Z,16.77
2017-12-31T14:40:52.649Z,13.97
2017-12-31T14:43:22.039Z,10.00
2017-12-31T14:45:49.868Z,13.63
2017-12-31T14:48:19.076Z,20.10
2017-12-31T14:50:47.634Z,15.93
2017-12-31T14:53:15.600Z,16.13
2017-12-31T14:55:43.492Z,23.30
2017-12-31T14:58:12.086Z,14.93
2017-12-31T15:00:40.602Z,15.27
2017-12-31T15:03:08.483Z,22.17
2017-12-31T15:05:42.116Z,17.03
2017-12-31T15:08:09.941Z,20.10
2017-12-31T15:10:40.620Z,15.03
2017-12-31T15:13:09.434Z,15.30
2017-12-31T15:15:38.725Z,12.83
2017-12-31T15:18:07.574Z,14.63
2017-12-31T15:20:36.790Z,17.00
2017-12-31T15:23:04.505Z,12.50
2017-12-31T15:25:38.795Z,12.77
2017-12-31T15:28:07.464Z,11.90
2017-12-31T15:30:41.346Z,6.80
2017-12-31T15:33:09.084Z,10.40
2017-12-31T15:35:37.033Z,8.50
2017-12-31T15:38:05.035Z,11.60
2017-12-31T15:40:34.038Z,10.57
2017-12-31T15:43:03.058Z,9.97
2017-12-31T15:45:32.807Z,7.13
2017-12-31T15:48:09.805Z,14.13
2017-12-31T15:50:38.816Z,12.07
2017-12-31T15:53:06.658Z,11.03
2017-12-31T15:55:35.367Z,9.30
2017-12-31T15:58:03.719Z,11.73
2017-12-31T16:00:33.212Z,11.13
2017-12-31T16:03:06.067Z,13.97
2017-12-31T16:09:24.361Z,11.30
2017-12-31T16:11:53.368Z,20.10
2017-12-31T16:14:30.288Z,14.93
2017-12-31T16:16:59.859Z,24.03
2017-12-31T16:19:32.404Z,19.87
2017-12-31T16:22:02.307Z,18.17
2017-12-31T16:24:32.606Z,11.53
2017-12-31T16:27:05.308Z,13.30
2017-12-31T16:29:44.654Z,19.17
2017-12-31T16:38:18.259Z,32.93
2017-12-31T16:41:01.613Z,35.47
2017-12-31T16:43:39.907Z,28.80
2017-12-31T16:48:49.110Z,15.17
2017-12-31T16:51:29.086Z,14.67
2017-12-31T16:56:44.639Z,14.80
2017-12-31T17:05:13.205Z,19.63
2017-12-31T17:07:49.423Z,20.77
2017-12-31T17:10:22.178Z,16.53
2017-12-31T17:12:50.321Z,15.40
2017-12-31T17:15:19.874Z,17.53
2017-12-31T17:17:54.044Z,10.93
2017-12-31T17:23:13.312Z,8.70
2017-12-31T17:25:44.668Z,4.53
2017-12-31T17:28:15.401Z,4.43
2017-12-31T17:30:43.182Z,10.87
2017-12-31T17:33:11.753Z,10.80
2017-12-31T17:35:41.855Z,9.17
2017-12-31T17:38:09.639Z,10.07
2017-12-31T17:40:46.549Z,13.73
2017-12-31T17:43:14.290Z,15.13
2017-12-31T17:45:42.740Z,13.60
2017-12-31T17:48:13.019Z,12.00
2017-12-31T17:50:44.711Z,13.17
2017-12-31T17:53:14.133Z,14.83
2017-12-31T17:55:50.901Z,11.50
2017-12-31T17:58:32.865Z,19.10
2017-12-31T18:01:09.438Z,12.43
2017-12-31T18:03:52.612Z,15.60
2017-12-31T18:06:23.882Z,16.20
2017-12-31T18:08:54.612Z,18.40
2017-12-31T18:11:22.367Z,18.73
2017-12-31T18:13:50.124Z,21.87
2017-12-31T18:16:21.572Z,27.27
2017-12-31T18:18:54.331Z,25.10
2017-12-31T18:21:25.763Z,18.33
2017-12-31T18:23:59.852Z,16.77
2017-12-31T18:26:29.363Z,18.83
2017-12-31T18:28:59.724Z,23.77
2017-12-31T18:31:29.066Z,52.80
2017-12-31T18:34:04.754Z,48.00
2017-12-31T18:36:34.911Z,42.00
2017-12-31T18:39:04.287Z,25.53
2017-12-31T18:41:33.379Z,17.63
2017-12-31T19:17:36.727Z,22.53
2017-12-31T20:30:32.014Z,43.87
2017-12-31T20:33:02.246Z,123.97
2017-12-31T20:35:30.857Z,54.53
2017-12-31T20:52:15.714Z,40.30
2017-12-31T21:00:55.598Z,11.87
2017-12-31T21:03:42.943Z,16.37
2017-12-31T21:06:35.158Z,15.83
2017-12-31T21:10:52.143Z,24.20
2017-12-31T21:38:28.551Z,24.17
2017-12-31T21:41:03.448Z,25.23
2017-12-31T21:43:33.829Z,26.40
2017-12-31T21:46:05.491Z,17.97
2017-12-31T21:48:36.692Z,23.63
2017-12-31T21:51:05.596Z,23.23
2017-12-31T21:56:31.681Z,21.57
2017-12-31T22:04:37.604Z,29.77
2017-12-31T22:07:14.332Z,26.67
2017-12-31T22:09:42.148Z,34.37
2017-12-31T22:12:09.968Z,40.63
2017-12-31T22:14:39.594Z,16.03
2017-12-31T22:26:29.532Z,8.80
2017-12-31T22:31:49.922Z,10.47
2017-12-31T22:34:30.106Z,13.83
2017-12-31T22:37:05.679Z,15.33
2017-12-31T22:39:44.084Z,15.83
2017-12-31T22:42:12.099Z,13.63
2017-12-31T22:44:42.974Z,16.50
2017-12-31T22:47:11.933Z,14.90
2017-12-31T22:49:44.863Z,17.83
2017-12-31T22:52:18.235Z,14.47
2017-12-31T22:57:19.514Z,20.93
2017-12-31T22:59:51.715Z,34.27
2017-12-31T23:02:19.697Z,33.00
2017-12-31T23:04:56.714Z,30.53
2017-12-31T23:07:29.553Z,29.30
2017-12-31T23:10:05.286Z,27.20
2017-12-31T23:12:35.917Z,50.03
2017-12-31T23:21:11.536Z,365.07
2017-12-31T23:23:44.486Z,440.40
2017-12-31T23:26:13.313Z,223.10
2017-12-31T23:28:41.112Z,84.57
2017-12-31T23:31:08.804Z,65.67
2017-12-31T23:33:37.197Z,54.47
2017-12-31T23:36:08.687Z,62.00
2017-12-31T23:38:40.430Z,54.43
2017-12-31T23:41:10.018Z,60.80
2017-12-31T23:43:42.079Z,60.23
2017-12-31T23:46:11.067Z,47.63
2017-12-31T23:48:47.686Z,58.57
2017-12-31T23:53:51.393Z,51.13
